createdAt,value
2018-03-27T00:00:51.114Z,8.00
2018-03-27T00:01:51.070Z,7.70
2018-03-27T00:02:51.076Z,7.20
2018-03-27T00:03:51.080Z,6.80
2018-03-27T00:04:51.084Z,7.00
2018-03-27T00:05:51.086Z,7.80
2018-03-27T00:06:51.210Z,7.10
2018-03-27T00:07:51.117Z,8.30
2018-03-27T00:08:51.109Z,7.70
2018-03-27T00:09:51.115Z,9.00
2018-03-27T00:10:51.119Z,7.70
2018-03-27T00:11:51.126Z,7.00
2018-03-27T00:12:51.178Z,10.30
2018-03-27T00:13:51.149Z,7.00
2018-03-27T00:14:51.146Z,7.10
2018-03-27T00:15:51.196Z,7.70
2018-03-27T00:16:51.163Z,7.50
2018-03-27T00:17:51.173Z,7.90
2018-03-27T00:18:51.170Z,6.80
2018-03-27T00:19:51.178Z,7.30
2018-03-27T00:20:51.263Z,7.00
2018-03-27T00:21:51.197Z,6.90
2018-03-27T00:22:51.197Z,7.30
2018-03-27T00:23:51.208Z,7.10
2018-03-27T00:24:51.226Z,6.80
2018-03-27T00:25:51.276Z,7.00
2018-03-27T00:26:51.230Z,7.20
2018-03-27T00:27:51.299Z,7.10
2018-03-27T00:28:51.235Z,7.50
2018-03-27T00:29:51.240Z,7.10
2018-03-27T00:30:51.258Z,7.90
2018-03-27T00:31:51.272Z,7.00
2018-03-27T00:32:51.265Z,7.40
2018-03-27T00:33:51.321Z,7.40
2018-03-27T00:34:51.284Z,7.20
2018-03-27T00:35:51.282Z,7.20
2018-03-27T00:36:51.308Z,7.40
2018-03-27T00:37:51.348Z,7.60
2018-03-27T00:38:51.352Z,7.00
2018-03-27T00:39:51.311Z,7.60
2018-03-27T00:40:51.317Z,7.20
2018-03-27T00:41:51.326Z,7.40
2018-03-27T00:42:51.335Z,7.40
2018-03-27T00:43:51.372Z,7.40
2018-03-27T00:44:51.385Z,8.50
2018-03-27T00:45:51.363Z,7.40
2018-03-27T00:46:51.352Z,7.40
2018-03-27T00:47:51.366Z,7.20
2018-03-27T00:48:51.376Z,7.00
2018-03-27T00:49:51.366Z,7.80
2018-03-27T00:50:51.405Z,7.70
2018-03-27T00:51:51.396Z,7.30
2018-03-27T00:52:51.408Z,7.80
2018-03-27T00:53:51.454Z,7.90
2018-03-27T00:54:51.401Z,8.60
2018-03-27T00:55:51.446Z,8.40
2018-03-27T00:56:51.433Z,8.20
2018-03-27T00:57:51.419Z,7.60
2018-03-27T00:58:51.439Z,7.50
2018-03-27T00:59:51.449Z,7.40
2018-03-27T01:00:51.438Z,7.90
2018-03-27T01:01:51.508Z,8.60
2018-03-27T01:02:51.448Z,8.60
2018-03-27T01:03:51.471Z,8.20
2018-03-27T01:04:51.494Z,8.10
2018-03-27T01:05:51.470Z,7.80
2018-03-27T01:06:51.479Z,7.70
2018-03-27T01:07:51.513Z,8.20
2018-03-27T01:08:51.489Z,7.10
2018-03-27T01:09:51.497Z,7.40
2018-03-27T01:10:51.607Z,7.20
2018-03-27T01:11:51.565Z,7.40
2018-03-27T01:12:51.534Z,6.60
2018-03-27T01:13:51.535Z,7.00
2018-03-27T01:14:51.535Z,7.00
2018-03-27T01:15:51.554Z,7.50
2018-03-27T01:16:51.562Z,7.40
2018-03-27T01:17:51.600Z,6.60
2018-03-27T01:18:51.556Z,6.80
2018-03-27T01:19:51.577Z,6.60
2018-03-27T01:20:51.572Z,6.60
2018-03-27T01:21:51.581Z,6.40
2018-03-27T01:22:51.615Z,6.70
2018-03-27T01:23:51.590Z,7.40
2018-03-27T01:24:51.616Z,6.70
2018-03-27T01:25:51.597Z,7.10
2018-03-27T01:26:51.647Z,7.10
2018-03-27T01:27:51.601Z,6.80
2018-03-27T01:28:51.616Z,6.50
2018-03-27T01:29:51.664Z,6.60
2018-03-27T01:30:51.638Z,7.30
2018-03-27T01:31:51.633Z,6.60
2018-03-27T01:32:51.674Z,6.80
2018-03-27T01:33:51.673Z,6.60
2018-03-27T01:34:51.653Z,6.70
2018-03-27T01:35:51.771Z,6.50
2018-03-27T01:36:51.673Z,6.20
2018-03-27T01:37:51.675Z,7.00
2018-03-27T01:38:51.769Z,6.20
2018-03-27T01:39:51.683Z,6.40
2018-03-27T01:40:51.685Z,6.90
2018-03-27T01:41:51.692Z,6.90
2018-03-27T01:42:51.717Z,6.80
2018-03-27T01:43:51.706Z,7.40
2018-03-27T01:44:51.749Z,6.80
2018-03-27T01:45:51.768Z,7.20
2018-03-27T01:46:51.726Z,7.00
2018-03-27T01:47:51.758Z,7.10
2018-03-27T01:48:51.741Z,6.60
2018-03-27T01:49:51.766Z,6.70
2018-03-27T01:50:51.751Z,6.40
2018-03-27T01:51:51.804Z,6.70
2018-03-27T01:52:51.813Z,6.60
2018-03-27T01:53:51.768Z,6.80
2018-03-27T01:54:51.777Z,6.70
2018-03-27T01:55:51.794Z,6.70
2018-03-27T01:56:51.799Z,7.00
2018-03-27T01:57:51.860Z,7.00
2018-03-27T01:58:51.885Z,6.60
2018-03-27T01:59:51.811Z,6.70
2018-03-27T02:00:51.810Z,6.40
2018-03-27T02:01:51.817Z,6.80
2018-03-27T02:02:51.843Z,6.50
2018-03-27T02:03:51.863Z,6.60
2018-03-27T02:04:51.890Z,6.60
2018-03-27T02:05:51.876Z,6.80
2018-03-27T02:06:51.847Z,7.20
2018-03-27T02:07:51.898Z,7.50
2018-03-27T02:08:51.863Z,6.80
2018-03-27T02:09:51.867Z,7.10
2018-03-27T02:10:51.920Z,6.70
2018-03-27T02:11:51.884Z,7.40
2018-03-27T02:12:51.916Z,7.70
2018-03-27T02:13:51.898Z,7.50
2018-03-27T02:14:51.940Z,7.30
2018-03-27T02:15:51.994Z,7.50
2018-03-27T02:16:51.916Z,7.40
2018-03-27T02:17:51.925Z,7.70
2018-03-27T02:18:51.934Z,7.80
2018-03-27T02:19:51.988Z,7.60
2018-03-27T02:20:51.940Z,7.90
2018-03-27T02:21:52.076Z,8.40
2018-03-27T02:22:51.957Z,9.50
2018-03-27T02:23:51.974Z,8.00
2018-03-27T02:24:51.985Z,7.90
2018-03-27T02:25:51.976Z,8.20
2018-03-27T02:26:51.980Z,7.80
2018-03-27T02:27:52.020Z,8.30
2018-03-27T02:28:52.014Z,7.80
2018-03-27T02:29:51.998Z,8.20
2018-03-27T02:30:52.034Z,7.70
2018-03-27T02:31:52.014Z,8.30
2018-03-27T02:32:52.049Z,8.90
2018-03-27T02:33:52.065Z,8.10
2018-03-27T02:34:52.034Z,7.90
2018-03-27T02:35:52.038Z,8.30
2018-03-27T02:36:52.045Z,8.40
2018-03-27T02:37:52.047Z,8.00
2018-03-27T02:38:52.119Z,8.10
2018-03-27T02:39:52.080Z,8.50
2018-03-27T02:40:52.068Z,8.50
2018-03-27T02:41:52.071Z,8.30
2018-03-27T02:42:52.075Z,8.00
2018-03-27T02:43:52.137Z,8.30
2018-03-27T02:44:52.091Z,8.00
2018-03-27T02:45:52.105Z,8.30
2018-03-27T02:46:52.123Z,7.70
2018-03-27T02:47:52.164Z,8.20
2018-03-27T02:48:52.124Z,7.90
2018-03-27T02:49:52.159Z,7.90
2018-03-27T02:50:52.125Z,10.60
2018-03-27T02:51:52.138Z,9.30
2018-03-27T02:52:52.190Z,10.10
2018-03-27T02:53:52.147Z,9.00
2018-03-27T02:54:52.148Z,9.00
2018-03-27T02:55:52.158Z,8.00
2018-03-27T02:56:52.164Z,7.80
2018-03-27T02:57:52.190Z,7.80
2018-03-27T02:58:52.342Z,7.70
2018-03-27T02:59:52.183Z,8.00
2018-03-27T03:00:52.224Z,7.90
2018-03-27T03:01:52.191Z,10.70
2018-03-27T03:02:52.202Z,10.40
2018-03-27T03:03:52.217Z,8.60
2018-03-27T03:04:52.265Z,8.10
2018-03-27T03:05:52.256Z,8.20
2018-03-27T03:06:52.224Z,8.30
2018-03-27T03:07:52.230Z,7.90
2018-03-27T03:08:52.252Z,8.20
2018-03-27T03:09:52.247Z,8.40
2018-03-27T03:10:52.263Z,8.70
2018-03-27T03:11:52.296Z,8.20
2018-03-27T03:12:52.267Z,8.90
2018-03-27T03:13:52.268Z,9.30
2018-03-27T03:14:52.314Z,8.90
2018-03-27T03:15:52.318Z,8.50
2018-03-27T03:16:52.289Z,9.30
2018-03-27T03:17:52.293Z,9.40
2018-03-27T03:18:52.297Z,8.90
2018-03-27T03:19:52.300Z,9.60
2018-03-27T03:20:52.351Z,9.00
2018-03-27T03:21:52.312Z,10.60
2018-03-27T03:22:52.354Z,10.00
2018-03-27T03:23:52.358Z,11.50
2018-03-27T03:24:52.336Z,9.60
2018-03-27T03:25:52.425Z,8.70
2018-03-27T03:26:52.358Z,8.90
2018-03-27T03:27:52.357Z,8.80
2018-03-27T03:28:52.357Z,9.10
2018-03-27T03:29:52.376Z,9.50
2018-03-27T03:30:52.384Z,10.40
2018-03-27T03:31:52.416Z,10.30
2018-03-27T03:32:52.449Z,10.30
2018-03-27T03:33:52.402Z,9.40
2018-03-27T03:34:52.391Z,9.90
2018-03-27T03:35:52.403Z,10.40
2018-03-27T03:36:52.427Z,10.10
2018-03-27T03:37:52.433Z,9.80
2018-03-27T03:38:52.476Z,10.00
2018-03-27T03:39:52.430Z,9.30
2018-03-27T03:40:52.487Z,9.60
2018-03-27T03:41:52.489Z,8.70
2018-03-27T03:42:52.444Z,9.50
2018-03-27T03:43:52.500Z,9.00
2018-03-27T03:44:52.459Z,9.30
2018-03-27T03:45:52.488Z,9.10
2018-03-27T03:46:52.508Z,9.40
2018-03-27T03:47:52.498Z,9.20
2018-03-27T03:48:52.552Z,9.20
2018-03-27T03:49:52.513Z,8.40
2018-03-27T03:50:52.560Z,9.10
2018-03-27T03:51:52.506Z,8.60
2018-03-27T03:52:52.558Z,8.70
2018-03-27T03:53:52.539Z,8.30
2018-03-27T03:54:52.567Z,8.80
2018-03-27T03:55:52.617Z,8.20
2018-03-27T03:56:52.537Z,8.90
2018-03-27T03:57:52.548Z,9.30
2018-03-27T03:58:52.590Z,9.00
2018-03-27T03:59:52.570Z,9.60
2018-03-27T04:00:52.609Z,8.90
2018-03-27T04:01:52.592Z,8.70
2018-03-27T04:02:52.589Z,9.00
2018-03-27T04:03:52.636Z,8.90
2018-03-27T04:04:52.595Z,8.60
2018-03-27T04:05:52.660Z,9.00
2018-03-27T04:06:52.628Z,9.40
2018-03-27T04:07:52.615Z,9.00
2018-03-27T04:08:52.650Z,9.00
2018-03-27T04:09:52.624Z,8.90
2018-03-27T04:10:52.716Z,9.40
2018-03-27T04:11:52.641Z,9.10
2018-03-27T04:12:52.694Z,8.90
2018-03-27T04:13:52.646Z,9.90
2018-03-27T04:14:52.652Z,9.60
2018-03-27T04:15:52.673Z,9.80
2018-03-27T04:16:52.712Z,8.90
2018-03-27T04:17:52.704Z,9.40
2018-03-27T04:18:52.704Z,9.80
2018-03-27T04:19:52.761Z,9.40
2018-03-27T04:20:52.707Z,9.80
2018-03-27T04:21:52.714Z,10.10
2018-03-27T04:22:52.825Z,10.20
2018-03-27T04:23:52.716Z,10.10
2018-03-27T04:24:52.728Z,9.80
2018-03-27T04:25:52.732Z,9.60
2018-03-27T04:26:52.744Z,10.30
2018-03-27T04:27:52.735Z,10.50
2018-03-27T04:28:52.805Z,9.90
2018-03-27T04:29:52.760Z,10.10
2018-03-27T04:30:52.765Z,10.20
2018-03-27T04:31:52.823Z,9.80
2018-03-27T04:32:52.783Z,10.20
2018-03-27T04:33:52.776Z,10.10
2018-03-27T04:34:52.818Z,10.10
2018-03-27T04:35:52.801Z,10.40
2018-03-27T04:36:52.797Z,10.60
2018-03-27T04:37:52.794Z,10.70
2018-03-27T04:38:52.814Z,10.20
2018-03-27T04:39:52.854Z,10.70
2018-03-27T04:40:52.963Z,10.50
2018-03-27T04:41:52.827Z,10.60
2018-03-27T04:42:52.828Z,10.80
2018-03-27T04:43:52.842Z,11.10
2018-03-27T04:44:52.857Z,11.30
2018-03-27T04:45:52.904Z,10.80
2018-03-27T04:46:52.862Z,11.80
2018-03-27T04:47:52.864Z,11.10
2018-03-27T04:48:52.867Z,11.40
2018-03-27T04:49:52.910Z,11.20
2018-03-27T04:50:52.877Z,11.20
2018-03-27T04:51:52.896Z,11.20
2018-03-27T04:52:52.936Z,10.90
2018-03-27T04:53:52.956Z,11.30
2018-03-27T04:54:52.914Z,11.80
2018-03-27T04:55:52.908Z,11.50
2018-03-27T04:56:52.929Z,11.00
2018-03-27T04:57:52.925Z,11.50
2018-03-27T04:58:52.932Z,11.00
2018-03-27T04:59:52.976Z,11.00
2018-03-27T05:00:52.988Z,11.50
2018-03-27T05:01:52.984Z,11.70
2018-03-27T05:02:52.978Z,11.20
2018-03-27T05:03:53.001Z,11.00
2018-03-27T05:04:52.972Z,11.60
2018-03-27T05:05:53.005Z,10.90
2018-03-27T05:06:52.987Z,12.50
2018-03-27T05:07:53.000Z,12.50
2018-03-27T05:08:52.996Z,11.70
2018-03-27T05:09:53.018Z,11.50
2018-03-27T05:10:53.050Z,11.10
2018-03-27T05:11:53.083Z,11.40
2018-03-27T05:12:53.022Z,11.80
2018-03-27T05:13:53.020Z,11.40
2018-03-27T05:14:53.034Z,11.30
2018-03-27T05:15:53.040Z,11.40
2018-03-27T05:16:53.092Z,11.90
2018-03-27T05:17:53.055Z,11.80
2018-03-27T05:18:53.058Z,12.20
2018-03-27T05:19:53.118Z,11.90
2018-03-27T05:20:53.074Z,11.50
2018-03-27T05:21:53.093Z,11.60
2018-03-27T05:22:53.108Z,12.20
2018-03-27T05:23:53.102Z,11.30
2018-03-27T05:24:53.114Z,11.00
2018-03-27T05:25:53.122Z,11.30
2018-03-27T05:26:53.158Z,11.10
2018-03-27T05:27:53.110Z,11.50
2018-03-27T05:28:53.114Z,10.90
2018-03-27T05:29:53.129Z,11.00
2018-03-27T05:30:53.129Z,11.20
2018-03-27T05:31:53.137Z,11.00
2018-03-27T05:32:53.233Z,11.90
2018-03-27T05:33:53.160Z,11.20
2018-03-27T05:34:53.165Z,11.60
2018-03-27T05:35:53.219Z,10.90
2018-03-27T05:36:53.158Z,11.50
2018-03-27T05:37:53.169Z,12.90
2018-03-27T05:38:53.231Z,12.70
2018-03-27T05:39:53.182Z,13.60
2018-03-27T05:40:53.185Z,13.80
2018-03-27T05:41:53.213Z,14.10
2018-03-27T05:42:53.199Z,13.90
2018-03-27T05:43:53.245Z,14.30
2018-03-27T05:44:53.255Z,14.50
2018-03-27T05:45:53.216Z,14.00
2018-03-27T05:46:53.223Z,14.40
2018-03-27T05:47:53.320Z,14.60
2018-03-27T05:48:53.259Z,14.60
2018-03-27T05:49:53.289Z,14.10
2018-03-27T05:50:53.329Z,14.90
2018-03-27T05:51:53.252Z,15.20
2018-03-27T05:52:53.278Z,14.60
2018-03-27T05:53:53.300Z,14.80
2018-03-27T05:54:53.356Z,15.40
2018-03-27T05:55:53.324Z,15.50
2018-03-27T05:56:53.284Z,16.60
2018-03-27T05:57:53.292Z,15.20
2018-03-27T05:58:53.394Z,14.60
2018-03-27T05:59:53.319Z,14.40
2018-03-27T06:00:53.344Z,14.30
2018-03-27T06:01:53.335Z,14.40
2018-03-27T06:02:53.334Z,14.70
2018-03-27T06:03:53.329Z,15.00
2018-03-27T06:04:53.371Z,14.10
2018-03-27T06:05:53.391Z,16.90
2018-03-27T06:06:53.397Z,14.90
2018-03-27T06:07:53.403Z,14.80
2018-03-27T06:08:53.423Z,14.40
2018-03-27T06:09:53.381Z,15.40
2018-03-27T06:10:53.382Z,15.00
2018-03-27T06:11:53.416Z,14.40
2018-03-27T06:12:53.514Z,15.00
2018-03-27T06:13:53.480Z,15.50
2018-03-27T06:14:53.399Z,15.80
2018-03-27T06:15:53.432Z,15.70
2018-03-27T06:16:53.478Z,15.70
2018-03-27T06:17:53.425Z,15.60
2018-03-27T06:18:53.439Z,14.90
2018-03-27T06:19:53.486Z,15.30
2018-03-27T06:20:53.491Z,15.70
2018-03-27T06:21:53.448Z,15.10
2018-03-27T06:22:53.450Z,15.30
2018-03-27T06:23:53.546Z,15.50
2018-03-27T06:24:53.472Z,15.50
2018-03-27T06:25:53.475Z,15.50
2018-03-27T06:26:53.474Z,15.00
2018-03-27T06:27:53.492Z,16.00
2018-03-27T06:28:53.493Z,15.40
2018-03-27T06:29:53.551Z,15.30
2018-03-27T06:30:53.507Z,16.50
2018-03-27T06:31:53.522Z,15.00
2018-03-27T06:32:53.516Z,15.60
2018-03-27T06:33:53.543Z,15.10
2018-03-27T06:34:53.536Z,15.00
2018-03-27T06:35:53.578Z,14.80
2018-03-27T06:36:53.546Z,14.40
2018-03-27T06:37:53.551Z,14.60
2018-03-27T06:38:53.551Z,15.00
2018-03-27T06:39:53.585Z,15.00
2018-03-27T06:40:53.566Z,14.20
2018-03-27T06:41:53.608Z,14.60
2018-03-27T06:42:53.579Z,13.90
2018-03-27T06:43:53.582Z,14.30
2018-03-27T06:44:53.599Z,14.00
2018-03-27T06:45:53.657Z,14.30
2018-03-27T06:46:53.609Z,15.10
2018-03-27T06:47:53.658Z,14.80
2018-03-27T06:48:53.625Z,14.70
2018-03-27T06:49:53.680Z,15.60
2018-03-27T06:50:53.633Z,14.30
2018-03-27T06:51:53.655Z,13.90
2018-03-27T06:52:53.725Z,14.50
2018-03-27T06:53:53.652Z,13.70
2018-03-27T06:54:53.660Z,15.40
2018-03-27T06:55:53.669Z,15.10
2018-03-27T06:56:53.689Z,15.40
2018-03-27T06:57:53.678Z,15.00
2018-03-27T06:58:53.727Z,18.80
2018-03-27T06:59:53.770Z,15.90
2018-03-27T07:00:53.705Z,14.80
2018-03-27T07:01:53.706Z,14.80
2018-03-27T07:02:53.719Z,14.00
2018-03-27T07:03:53.775Z,14.40
2018-03-27T07:04:53.726Z,14.80
2018-03-27T07:05:53.735Z,14.90
2018-03-27T07:06:53.765Z,14.30
2018-03-27T07:07:53.747Z,13.80
2018-03-27T07:08:53.809Z,13.30
2018-03-27T07:09:53.774Z,13.70
2018-03-27T07:10:53.769Z,14.10
2018-03-27T07:11:53.851Z,13.30
2018-03-27T07:12:53.792Z,13.40
2018-03-27T07:13:53.832Z,14.60
2018-03-27T07:14:53.990Z,14.00
2018-03-27T07:15:53.802Z,13.80
2018-03-27T07:16:53.826Z,13.70
2018-03-27T07:17:53.821Z,13.70
2018-03-27T07:18:53.833Z,13.90
2018-03-27T07:19:53.874Z,13.90
2018-03-27T07:20:53.879Z,14.40
2018-03-27T07:21:53.855Z,13.50
2018-03-27T07:22:53.847Z,13.80
2018-03-27T07:23:53.851Z,15.20
2018-03-27T07:24:53.922Z,14.70
2018-03-27T07:25:53.869Z,14.10
2018-03-27T07:26:53.915Z,14.90
2018-03-27T07:27:53.927Z,14.70
2018-03-27T07:28:53.916Z,14.50
2018-03-27T07:29:53.907Z,14.50
2018-03-27T07:30:53.960Z,14.00
2018-03-27T07:31:53.975Z,13.30
2018-03-27T07:32:53.962Z,14.40
2018-03-27T07:33:53.921Z,14.50
2018-03-27T07:34:53.940Z,14.40
2018-03-27T07:35:53.939Z,14.00
2018-03-27T07:36:54.147Z,14.40
2018-03-27T07:37:53.952Z,14.50
2018-03-27T07:38:53.966Z,15.10
2018-03-27T07:39:53.960Z,15.30
2018-03-27T07:40:53.973Z,15.30
2018-03-27T07:41:53.997Z,14.70
2018-03-27T07:42:54.031Z,14.60
2018-03-27T07:43:53.999Z,14.60
2018-03-27T07:44:54.152Z,14.40
2018-03-27T07:45:54.050Z,14.30
2018-03-27T07:46:54.017Z,14.60
2018-03-27T07:47:54.022Z,15.30
2018-03-27T07:48:54.026Z,15.40
2018-03-27T07:49:54.036Z,15.10
2018-03-27T07:50:54.041Z,15.70
2018-03-27T07:51:54.089Z,15.60
2018-03-27T07:52:54.055Z,15.60
2018-03-27T07:53:54.089Z,15.00
2018-03-27T07:54:54.106Z,15.60
2018-03-27T07:55:54.074Z,15.00
2018-03-27T07:56:54.117Z,15.50
2018-03-27T07:57:54.090Z,15.90
2018-03-27T07:58:54.134Z,15.70
2018-03-27T07:59:54.123Z,15.10
2018-03-27T08:00:54.153Z,14.90
2018-03-27T08:01:54.122Z,14.80
2018-03-27T08:02:54.143Z,15.40
2018-03-27T08:03:54.140Z,15.10
2018-03-27T08:04:54.258Z,15.20
2018-03-27T08:05:54.153Z,14.70
2018-03-27T08:06:54.167Z,15.40
2018-03-27T08:07:54.170Z,13.90
2018-03-27T08:08:54.166Z,13.50
2018-03-27T08:09:54.187Z,14.20
2018-03-27T08:10:54.240Z,13.40
2018-03-27T08:11:54.219Z,13.70
2018-03-27T08:12:54.207Z,13.00
2018-03-27T08:13:54.205Z,13.70
2018-03-27T08:14:54.214Z,13.40
2018-03-27T08:15:54.217Z,14.30
2018-03-27T08:16:54.291Z,13.30
2018-03-27T08:17:54.240Z,13.70
2018-03-27T08:18:54.253Z,13.50
2018-03-27T08:19:54.257Z,13.30
2018-03-27T08:20:54.269Z,12.90
2018-03-27T08:21:54.325Z,12.20
2018-03-27T08:22:54.293Z,12.70
2018-03-27T08:23:54.293Z,13.50
2018-03-27T08:24:54.287Z,12.70
2018-03-27T08:25:54.309Z,12.90
2018-03-27T08:26:54.311Z,12.60
2018-03-27T08:27:54.346Z,12.50
2018-03-27T08:28:54.326Z,12.50
2018-03-27T08:29:54.356Z,13.30
2018-03-27T08:30:54.399Z,13.00
2018-03-27T08:31:54.390Z,13.00
2018-03-27T08:32:54.364Z,14.00
2018-03-27T08:33:54.361Z,13.70
2018-03-27T08:34:54.364Z,14.50
2018-03-27T08:35:54.375Z,14.40
2018-03-27T08:36:54.442Z,14.00
2018-03-27T08:37:54.392Z,14.60
2018-03-27T08:38:54.566Z,14.20
2018-03-27T08:39:54.410Z,15.00
2018-03-27T08:40:54.405Z,15.20
2018-03-27T08:41:54.425Z,16.00
2018-03-27T08:42:54.430Z,15.00
2018-03-27T08:43:54.500Z,15.60
2018-03-27T08:44:54.435Z,14.70
2018-03-27T08:45:54.443Z,14.20
2018-03-27T08:46:54.448Z,14.90
2018-03-27T08:47:54.477Z,14.70
2018-03-27T08:48:54.463Z,14.60
2018-03-27T08:49:54.506Z,16.00
2018-03-27T08:50:54.482Z,16.30
2018-03-27T08:51:54.486Z,16.20
2018-03-27T08:52:54.499Z,17.10
2018-03-27T08:53:54.497Z,16.90
2018-03-27T08:54:54.723Z,16.90
2018-03-27T08:55:54.514Z,16.40
2018-03-27T08:56:54.584Z,16.40
2018-03-27T08:57:54.537Z,16.50
2018-03-27T08:58:54.539Z,18.00
2018-03-27T08:59:54.595Z,17.60
2018-03-27T09:00:54.604Z,18.90
2018-03-27T09:01:54.574Z,18.60
2018-03-27T09:02:54.566Z,19.00
2018-03-27T09:03:54.578Z,17.90
2018-03-27T09:04:54.582Z,17.30
2018-03-27T09:05:54.684Z,17.40
2018-03-27T09:06:54.638Z,17.30
2018-03-27T09:07:54.608Z,18.00
2018-03-27T09:08:54.616Z,17.60
2018-03-27T09:09:54.618Z,16.70
2018-03-27T09:10:54.629Z,17.10
2018-03-27T09:11:54.684Z,16.70
2018-03-27T09:12:54.661Z,16.50
2018-03-27T09:13:54.660Z,17.20
2018-03-27T09:14:54.668Z,16.80
2018-03-27T09:15:54.666Z,16.10
2018-03-27T09:16:54.675Z,16.00
2018-03-27T09:17:54.716Z,16.60
2018-03-27T09:18:54.704Z,16.20
2018-03-27T09:19:54.701Z,16.20
2018-03-27T09:20:54.721Z,15.60
2018-03-27T09:21:54.721Z,14.80
2018-03-27T09:22:54.756Z,14.80
2018-03-27T09:23:54.786Z,14.70
2018-03-27T09:24:54.754Z,13.70
2018-03-27T09:25:54.744Z,12.80
2018-03-27T09:26:54.758Z,13.50
2018-03-27T09:27:54.766Z,13.60
2018-03-27T09:28:54.822Z,13.40
2018-03-27T09:29:54.784Z,13.60
2018-03-27T09:30:54.814Z,13.70
2018-03-27T09:31:54.818Z,13.60
2018-03-27T09:32:54.798Z,13.60
2018-03-27T09:33:54.806Z,13.40
2018-03-27T09:34:54.874Z,13.60
2018-03-27T09:35:54.853Z,13.70
2018-03-27T09:36:54.852Z,13.00
2018-03-27T09:37:54.872Z,13.60
2018-03-27T09:38:54.864Z,13.40
2018-03-27T09:39:54.857Z,12.60
2018-03-27T09:40:54.901Z,12.20
2018-03-27T09:41:54.889Z,12.30
2018-03-27T09:42:54.880Z,12.00
2018-03-27T09:43:54.915Z,11.90
2018-03-27T09:44:54.898Z,12.20
2018-03-27T09:45:54.939Z,11.50
2018-03-27T09:46:54.943Z,11.70
2018-03-27T09:47:54.920Z,12.10
2018-03-27T09:48:54.946Z,11.20
2018-03-27T09:49:54.934Z,11.50
2018-03-27T09:50:54.991Z,12.30
2018-03-27T09:51:54.950Z,13.00
2018-03-27T09:52:55.020Z,12.30
2018-03-27T09:53:54.969Z,11.50
2018-03-27T09:54:54.977Z,12.10
2018-03-27T09:55:54.987Z,11.40
2018-03-27T09:56:55.005Z,11.10
2018-03-27T09:57:55.030Z,10.70
2018-03-27T09:58:55.008Z,10.50
2018-03-27T09:59:55.037Z,11.10
2018-03-27T10:00:55.023Z,10.70
2018-03-27T10:01:55.065Z,10.40
2018-03-27T10:02:55.046Z,10.50
2018-03-27T10:03:55.093Z,11.00
2018-03-27T10:04:55.061Z,10.90
2018-03-27T10:05:55.077Z,11.00
2018-03-27T10:06:55.093Z,10.60
2018-03-27T10:07:55.085Z,10.50
2018-03-27T10:08:55.135Z,9.90
2018-03-27T10:09:55.134Z,10.50
2018-03-27T10:10:55.117Z,10.50
2018-03-27T10:11:55.143Z,10.50
2018-03-27T10:12:55.127Z,9.60
2018-03-27T10:13:55.152Z,9.60
2018-03-27T10:14:55.184Z,8.70
2018-03-27T10:15:55.145Z,9.50
2018-03-27T10:16:55.160Z,10.70
2018-03-27T10:17:55.188Z,8.60
2018-03-27T10:18:55.172Z,8.90
2018-03-27T10:19:55.183Z,8.30
2018-03-27T10:20:55.235Z,8.20
2018-03-27T10:21:55.197Z,8.20
2018-03-27T10:22:55.202Z,8.30
2018-03-27T10:23:55.224Z,9.00
2018-03-27T10:24:55.263Z,8.70
2018-03-27T10:25:55.272Z,8.80
2018-03-27T10:26:55.236Z,8.60
2018-03-27T10:27:55.309Z,8.20
2018-03-27T10:28:55.255Z,8.30
2018-03-27T10:29:55.264Z,8.30
2018-03-27T10:30:55.273Z,8.20
2018-03-27T10:31:55.321Z,8.20
2018-03-27T10:32:55.288Z,8.60
2018-03-27T10:33:55.337Z,9.40
2018-03-27T10:34:55.305Z,8.80
2018-03-27T10:35:55.336Z,9.20
2018-03-27T10:36:55.328Z,9.40
2018-03-27T10:37:55.362Z,9.30
2018-03-27T10:38:55.347Z,9.00
2018-03-27T10:39:55.384Z,9.20
2018-03-27T10:40:55.378Z,9.00
2018-03-27T10:41:55.363Z,9.00
2018-03-27T10:42:55.392Z,8.80
2018-03-27T10:43:55.391Z,9.00
2018-03-27T10:44:55.445Z,8.60
2018-03-27T10:45:55.400Z,8.60
2018-03-27T10:46:55.406Z,9.00
2018-03-27T10:47:55.422Z,8.60
2018-03-27T10:48:55.474Z,9.10
2018-03-27T10:49:55.499Z,9.40
2018-03-27T10:50:55.446Z,9.10
2018-03-27T10:51:55.447Z,9.30
2018-03-27T10:52:55.457Z,9.30
2018-03-27T10:53:55.515Z,9.40
2018-03-27T10:54:55.476Z,9.10
2018-03-27T10:55:55.482Z,9.60
2018-03-27T10:56:55.499Z,8.80
2018-03-27T10:57:55.498Z,9.20
2018-03-27T10:58:55.542Z,9.10
2018-03-27T10:59:55.556Z,9.30
2018-03-27T11:00:55.532Z,9.30
2018-03-27T11:01:55.537Z,9.00
2018-03-27T11:02:55.549Z,9.00
2018-03-27T11:03:55.611Z,10.20
2018-03-27T11:04:55.599Z,9.40
2018-03-27T11:05:55.577Z,9.90
2018-03-27T11:06:55.575Z,9.50
2018-03-27T11:07:55.585Z,9.30
2018-03-27T11:08:55.601Z,8.60
2018-03-27T11:09:55.673Z,9.00
2018-03-27T11:10:55.619Z,8.70
2018-03-27T11:11:55.644Z,9.30
2018-03-27T11:12:55.632Z,8.90
2018-03-27T11:13:55.661Z,8.70
2018-03-27T11:14:55.662Z,9.20
2018-03-27T11:15:55.714Z,9.00
2018-03-27T11:16:55.664Z,9.10
2018-03-27T11:17:55.671Z,9.20
2018-03-27T11:18:55.707Z,8.80
2018-03-27T11:19:55.737Z,9.70
2018-03-27T11:20:55.707Z,9.10
2018-03-27T11:21:55.752Z,9.30
2018-03-27T11:22:55.735Z,14.20
2018-03-27T11:23:55.722Z,11.80
2018-03-27T11:24:55.787Z,10.30
2018-03-27T11:25:55.759Z,9.90
2018-03-27T11:26:55.758Z,9.20
2018-03-27T11:27:55.760Z,8.90
2018-03-27T11:28:55.766Z,8.60
2018-03-27T11:29:55.842Z,9.40
2018-03-27T11:30:55.787Z,9.40
2018-03-27T11:31:55.791Z,9.80
2018-03-27T11:32:55.834Z,8.80
2018-03-27T11:33:55.804Z,10.00
2018-03-27T11:34:55.846Z,9.60
2018-03-27T11:35:55.830Z,9.60
2018-03-27T11:36:55.850Z,11.00
2018-03-27T11:37:55.939Z,10.30
2018-03-27T11:38:55.857Z,9.80
2018-03-27T11:39:55.865Z,9.70
2018-03-27T11:40:55.889Z,9.90
2018-03-27T11:41:55.900Z,9.70
2018-03-27T11:42:55.942Z,9.80
2018-03-27T11:43:55.894Z,9.80
2018-03-27T11:44:55.900Z,10.50
2018-03-27T11:45:55.909Z,12.30
2018-03-27T11:46:55.921Z,9.90
2018-03-27T11:47:55.990Z,9.60
2018-03-27T11:48:55.952Z,9.70
2018-03-27T11:49:55.960Z,10.00
2018-03-27T11:50:55.978Z,10.00
2018-03-27T11:51:55.988Z,9.20
2018-03-27T11:52:56.014Z,9.50
2018-03-27T11:53:56.019Z,8.90
2018-03-27T11:54:56.005Z,9.60
2018-03-27T11:55:56.015Z,9.10
2018-03-27T11:56:56.017Z,9.10
2018-03-27T11:57:56.080Z,9.00
2018-03-27T11:58:56.040Z,9.80
2018-03-27T11:59:56.040Z,9.30
2018-03-27T12:00:56.049Z,9.40
2018-03-27T12:01:56.058Z,10.30
2018-03-27T12:02:56.062Z,10.10
2018-03-27T12:03:56.105Z,10.20
2018-03-27T12:04:56.087Z,11.30
2018-03-27T12:05:56.090Z,10.10
2018-03-27T12:06:56.105Z,9.20
2018-03-27T12:07:56.139Z,9.20
2018-03-27T12:08:56.167Z,8.60
2018-03-27T12:09:56.154Z,8.50
2018-03-27T12:10:56.134Z,8.40
2018-03-27T12:11:56.146Z,8.40
2018-03-27T12:12:56.149Z,8.60
2018-03-27T12:13:56.156Z,8.70
2018-03-27T12:14:56.459Z,8.80
2018-03-27T12:15:56.176Z,9.10
2018-03-27T12:16:56.200Z,9.80
2018-03-27T12:17:56.207Z,9.90
2018-03-27T12:18:56.234Z,8.40
2018-03-27T12:19:56.218Z,8.60
2018-03-27T12:20:56.218Z,12.20
2018-03-27T12:21:56.236Z,16.80
2018-03-27T12:22:56.283Z,14.80
2018-03-27T12:23:56.285Z,10.40
2018-03-27T12:24:56.269Z,8.40
2018-03-27T12:25:56.304Z,7.90
2018-03-27T12:26:56.320Z,7.70
2018-03-27T12:27:56.310Z,7.90
2018-03-27T12:28:56.296Z,7.90
2018-03-27T12:29:56.312Z,8.20
2018-03-27T12:30:56.348Z,8.10
2018-03-27T12:31:56.318Z,8.60
2018-03-27T12:32:56.328Z,8.60
2018-03-27T12:33:56.340Z,9.30
2018-03-27T12:34:56.342Z,10.00
2018-03-27T12:35:56.430Z,9.60
2018-03-27T12:36:56.394Z,9.00
2018-03-27T12:37:56.372Z,8.10
2018-03-27T12:38:56.380Z,8.40
2018-03-27T12:39:56.415Z,8.30
2018-03-27T12:40:56.399Z,8.80
2018-03-27T12:41:56.443Z,9.10
2018-03-27T12:42:56.427Z,10.40
2018-03-27T12:43:56.426Z,9.00
2018-03-27T12:44:56.440Z,8.70
2018-03-27T12:45:56.475Z,8.90
2018-03-27T12:46:56.516Z,8.90
2018-03-27T12:47:56.499Z,10.00
2018-03-27T12:48:56.474Z,9.30
2018-03-27T12:49:56.499Z,8.20
2018-03-27T12:50:56.486Z,8.60
2018-03-27T12:51:56.496Z,8.40
2018-03-27T12:52:56.554Z,7.80
2018-03-27T12:53:56.513Z,7.90
2018-03-27T12:54:56.541Z,7.40
2018-03-27T12:55:56.544Z,8.00
2018-03-27T12:56:56.555Z,7.80
2018-03-27T12:57:56.605Z,8.00
2018-03-27T12:58:56.614Z,8.50
2018-03-27T12:59:56.571Z,8.40
2018-03-27T13:00:56.581Z,8.20
2018-03-27T13:01:56.598Z,7.70
2018-03-27T13:02:56.603Z,7.60
2018-03-27T13:03:56.642Z,7.80
2018-03-27T13:04:56.634Z,7.50
2018-03-27T13:05:56.625Z,8.00